sensor_id;sensor_type;location;lat;lon;timestamp;P1;durP1;ratioP1;P2;durP2;ratioP2
20320;SDS011;10318;47.674;9.052;2022-08-01T00:00:02;2.92;;;1.33;;
20320;SDS011;10318;47.674;9.052;2022-08-01T00:02:30;1.83;;;1.30;;
20320;SDS011;10318;47.674;9.052;2022-08-01T00:04:57;5.10;;;1.50;;
20320;SDS011;10318;47.674;9.052;2022-08-01T00:07:24;2.38;;;1.58;;
20320;SDS011;10318;47.674;9.052;2022-08-01T00:09:51;6.72;;;1.70;;
20320;SDS011;10318;47.674;9.052;2022-08-01T00:12:18;4.07;;;1.50;;
20320;SDS011;10318;47.674;9.052;2022-08-01T00:14:44;1.40;;;1.30;;
20320;SDS011;10318;47.674;9.052;2022-08-01T00:17:11;2.00;;;1.10;;
20320;SDS011;10318;47.674;9.052;2022-08-01T00:19:38;3.63;;;1.20;;
20320;SDS011;10318;47.674;9.052;2022-08-01T00:22:04;5.03;;;1.30;;
20320;SDS011;10318;47.674;9.052;2022-08-01T00:24:32;2.08;;;1.10;;
20320;SDS011;10318;47.674;9.052;2022-08-01T00:26:58;2.85;;;1.45;;
20320;SDS011;10318;47.674;9.052;2022-08-01T00:29:25;1.52;;;1.30;;
20320;SDS011;10318;47.674;9.052;2022-08-01T00:32:12;2.50;;;1.00;;
20320;SDS011;10318;47.674;9.052;2022-08-01T00:34:38;1.90;;;1.02;;
20320;SDS011;10318;47.674;9.052;2022-08-01T00:37:05;1.85;;;1.30;;
20320;SDS011;10318;47.674;9.052;2022-08-01T00:39:32;8.60;;;1.45;;
20320;SDS011;10318;47.674;9.052;2022-08-01T00:42:08;2.28;;;1.23;;
20320;SDS011;10318;47.674;9.052;2022-08-01T00:44:35;1.98;;;1.13;;
20320;SDS011;10318;47.674;9.052;2022-08-01T00:47:02;3.55;;;1.58;;
20320;SDS011;10318;47.674;9.052;2022-08-01T00:49:29;3.42;;;1.33;;
20320;SDS011;10318;47.674;9.052;2022-08-01T00:51:56;4.43;;;1.20;;
20320;SDS011;10318;47.674;9.052;2022-08-01T00:54:25;1.90;;;1.40;;
20320;SDS011;10318;47.674;9.052;2022-08-01T00:56:52;1.35;;;1.05;;
20320;SDS011;10318;47.674;9.052;2022-08-01T00:59:20;4.35;;;1.20;;
20320;SDS011;10318;47.674;9.052;2022-08-01T01:01:48;4.05;;;1.30;;
20320;SDS011;10318;47.674;9.052;2022-08-01T01:04:15;3.63;;;1.50;;
20320;SDS011;10318;47.674;9.052;2022-08-01T01:14:23;1.35;;;1.20;;
20320;SDS011;10318;47.674;9.052;2022-08-01T01:16:52;2.75;;;1.38;;
20320;SDS011;10318;47.674;9.052;2022-08-01T01:19:21;1.70;;;1.20;;
20320;SDS011;10318;47.674;9.052;2022-08-01T01:24:40;5.45;;;1.33;;
20320;SDS011;10318;47.674;9.052;2022-08-01T01:29:54;1.65;;;1.13;;
20320;SDS011;10318;47.674;9.052;2022-08-01T01:34:56;1.77;;;1.20;;
20320;SDS011;10318;47.674;9.052;2022-08-01T01:37:23;1.15;;;1.05;;
20320;SDS011;10318;47.674;9.052;2022-08-01T01:39:51;2.40;;;1.33;;
20320;SDS011;10318;47.674;9.052;2022-08-01T01:42:19;1.70;;;1.10;;
20320;SDS011;10318;47.674;9.052;2022-08-01T01:44:47;1.50;;;1.30;;
20320;SDS011;10318;47.674;9.052;2022-08-01T01:47:14;1.50;;;1.20;;
20320;SDS011;10318;47.674;9.052;2022-08-01T01:49:43;2.47;;;1.40;;
20320;SDS011;10318;47.674;9.052;2022-08-01T01:52:11;2.25;;;1.58;;
20320;SDS011;10318;47.674;9.052;2022-08-01T01:54:40;1.20;;;1.05;;
20320;SDS011;10318;47.674;9.052;2022-08-01T01:57:07;3.20;;;1.52;;
20320;SDS011;10318;47.674;9.052;2022-08-01T01:59:36;4.32;;;1.42;;
20320;SDS011;10318;47.674;9.052;2022-08-01T02:02:03;3.50;;;1.73;;
20320;SDS011;10318;47.674;9.052;2022-08-01T02:04:32;2.20;;;1.40;;
20320;SDS011;10318;47.674;9.052;2022-08-01T02:07:02;2.55;;;1.30;;
20320;SDS011;10318;47.674;9.052;2022-08-01T02:09:29;2.95;;;1.60;;
20320;SDS011;10318;47.674;9.052;2022-08-01T02:11:57;2.65;;;1.35;;
20320;SDS011;10318;47.674;9.052;2022-08-01T02:14:33;2.40;;;1.35;;
20320;SDS011;10318;47.674;9.052;2022-08-01T02:17:06;2.15;;;1.40;;
20320;SDS011;10318;47.674;9.052;2022-08-01T02:19:34;3.55;;;1.30;;
20320;SDS011;10318;47.674;9.052;2022-08-01T02:22:05;6.18;;;1.52;;
20320;SDS011;10318;47.674;9.052;2022-08-01T02:27:01;2.00;;;1.40;;
20320;SDS011;10318;47.674;9.052;2022-08-01T02:29:33;4.00;;;1.60;;
20320;SDS011;10318;47.674;9.052;2022-08-01T02:32:02;1.80;;;1.45;;
20320;SDS011;10318;47.674;9.052;2022-08-01T02:34:29;2.28;;;1.38;;
20320;SDS011;10318;47.674;9.052;2022-08-01T02:36:58;2.25;;;1.20;;
20320;SDS011;10318;47.674;9.052;2022-08-01T02:39:27;1.95;;;1.35;;
20320;SDS011;10318;47.674;9.052;2022-08-01T02:41:55;4.80;;;1.40;;
20320;SDS011;10318;47.674;9.052;2022-08-01T02:44:25;1.95;;;1.50;;
20320;SDS011;10318;47.674;9.052;2022-08-01T02:46:57;2.95;;;1.40;;
20320;SDS011;10318;47.674;9.052;2022-08-01T02:49:32;2.22;;;1.38;;
20320;SDS011;10318;47.674;9.052;2022-08-01T02:52:01;2.03;;;1.50;;
20320;SDS011;10318;47.674;9.052;2022-08-01T02:54:28;4.35;;;1.60;;
20320;SDS011;10318;47.674;9.052;2022-08-01T02:56:56;2.55;;;1.75;;
20320;SDS011;10318;47.674;9.052;2022-08-01T02:59:24;2.55;;;1.60;;
20320;SDS011;10318;47.674;9.052;2022-08-01T03:01:53;2.97;;;1.40;;
20320;SDS011;10318;47.674;9.052;2022-08-01T03:04:21;4.63;;;1.48;;
20320;SDS011;10318;47.674;9.052;2022-08-01T03:06:48;5.20;;;1.52;;
20320;SDS011;10318;47.674;9.052;2022-08-01T03:09:15;4.72;;;1.42;;
20320;SDS011;10318;47.674;9.052;2022-08-01T03:11:45;2.13;;;1.60;;
20320;SDS011;10318;47.674;9.052;2022-08-01T03:14:13;5.05;;;1.80;;
20320;SDS011;10318;47.674;9.052;2022-08-01T03:16:41;3.60;;;1.33;;
20320;SDS011;10318;47.674;9.052;2022-08-01T03:19:08;2.55;;;1.30;;
20320;SDS011;10318;47.674;9.052;2022-08-01T03:21:36;2.40;;;1.25;;
20320;SDS011;10318;47.674;9.052;2022-08-01T03:24:04;1.77;;;1.30;;
20320;SDS011;10318;47.674;9.052;2022-08-01T03:26:33;1.70;;;1.20;;
20320;SDS011;10318;47.674;9.052;2022-08-01T03:29:04;2.38;;;1.52;;
20320;SDS011;10318;47.674;9.052;2022-08-01T03:31:34;3.67;;;1.67;;
20320;SDS011;10318;47.674;9.052;2022-08-01T03:34:02;1.67;;;1.40;;
20320;SDS011;10318;47.674;9.052;2022-08-01T03:36:31;2.97;;;1.58;;
20320;SDS011;10318;47.674;9.052;2022-08-01T03:39:00;3.80;;;1.50;;
20320;SDS011;10318;47.674;9.052;2022-08-01T03:41:29;1.98;;;1.27;;
20320;SDS011;10318;47.674;9.052;2022-08-01T03:44:03;2.10;;;1.35;;
20320;SDS011;10318;47.674;9.052;2022-08-01T03:46:47;1.73;;;1.48;;
20320;SDS011;10318;47.674;9.052;2022-08-01T03:49:17;4.00;;;1.40;;
20320;SDS011;10318;47.674;9.052;2022-08-01T03:51:45;2.95;;;1.30;;
20320;SDS011;10318;47.674;9.052;2022-08-01T03:54:16;3.70;;;1.52;;
20320;SDS011;10318;47.674;9.052;2022-08-01T03:56:43;2.92;;;1.42;;
20320;SDS011;10318;47.674;9.052;2022-08-01T03:59:12;4.85;;;1.50;;
20320;SDS011;10318;47.674;9.052;2022-08-01T04:01:41;3.45;;;1.42;;
20320;SDS011;10318;47.674;9.052;2022-08-01T04:04:07;1.58;;;1.48;;
20320;SDS011;10318;47.674;9.052;2022-08-01T04:06:37;3.83;;;1.38;;
20320;SDS011;10318;47.674;9.052;2022-08-01T04:09:03;2.28;;;1.40;;
20320;SDS011;10318;47.674;9.052;2022-08-01T04:11:35;2.97;;;1.45;;
20320;SDS011;10318;47.674;9.052;2022-08-01T04:14:02;2.45;;;1.50;;
20320;SDS011;10318;47.674;9.052;2022-08-01T04:16:34;3.78;;;1.35;;
20320;SDS011;10318;47.674;9.052;2022-08-01T04:19:01;2.22;;;1.60;;
20320;SDS011;10318;47.674;9.052;2022-08-01T04:21:28;3.17;;;1.50;;
20320;SDS011;10318;47.674;9.052;2022-08-01T04:24:01;3.65;;;1.45;;
20320;SDS011;10318;47.674;9.052;2022-08-01T04:26:29;4.70;;;1.60;;
20320;SDS011;10318;47.674;9.052;2022-08-01T04:28:56;3.20;;;1.50;;
20320;SDS011;10318;47.674;9.052;2022-08-01T04:31:23;2.78;;;1.55;;
20320;SDS011;10318;47.674;9.052;2022-08-01T04:33:52;2.50;;;1.60;;
20320;SDS011;10318;47.674;9.052;2022-08-01T04:36:20;5.03;;;1.50;;
20320;SDS011;10318;47.674;9.052;2022-08-01T04:38:50;4.68;;;1.63;;
20320;SDS011;10318;47.674;9.052;2022-08-01T04:41:17;2.97;;;1.60;;
20320;SDS011;10318;47.674;9.052;2022-08-01T04:43:45;2.10;;;1.60;;
20320;SDS011;10318;47.674;9.052;2022-08-01T04:46:13;3.00;;;1.85;;
20320;SDS011;10318;47.674;9.052;2022-08-01T04:48:39;5.10;;;1.50;;
20320;SDS011;10318;47.674;9.052;2022-08-01T04:51:16;3.40;;;1.70;;
20320;SDS011;10318;47.674;9.052;2022-08-01T04:53:43;3.33;;;2.08;;
20320;SDS011;10318;47.674;9.052;2022-08-01T04:56:12;2.33;;;1.90;;
20320;SDS011;10318;47.674;9.052;2022-08-01T04:58:40;2.00;;;1.60;;
20320;SDS011;10318;47.674;9.052;2022-08-01T05:01:07;4.20;;;1.65;;
20320;SDS011;10318;47.674;9.052;2022-08-01T05:03:34;4.75;;;1.80;;
20320;SDS011;10318;47.674;9.052;2022-08-01T05:06:04;9.02;;;2.10;;
20320;SDS011;10318;47.674;9.052;2022-08-01T05:08:31;2.47;;;1.55;;
20320;SDS011;10318;47.674;9.052;2022-08-01T05:10:58;1.67;;;1.58;;
20320;SDS011;10318;47.674;9.052;2022-08-01T05:13:25;2.60;;;1.80;;
20320;SDS011;10318;47.674;9.052;2022-08-01T05:15:52;2.47;;;1.60;;
20320;SDS011;10318;47.674;9.052;2022-08-01T05:18:19;6.05;;;1.85;;
20320;SDS011;10318;47.674;9.052;2022-08-01T05:20:54;2.45;;;1.90;;
20320;SDS011;10318;47.674;9.052;2022-08-01T05:23:20;3.35;;;2.00;;
20320;SDS011;10318;47.674;9.052;2022-08-01T05:26:09;3.53;;;1.70;;
20320;SDS011;10318;47.674;9.052;2022-08-01T05:28:36;3.42;;;1.77;;
20320;SDS011;10318;47.674;9.052;2022-08-01T05:31:03;5.78;;;1.80;;
20320;SDS011;10318;47.674;9.052;2022-08-01T05:33:29;1.60;;;1.50;;
20320;SDS011;10318;47.674;9.052;2022-08-01T05:35:56;4.30;;;1.73;;
20320;SDS011;10318;47.674;9.052;2022-08-01T05:38:23;2.03;;;1.80;;
20320;SDS011;10318;47.674;9.052;2022-08-01T05:40:49;2.63;;;1.88;;
20320;SDS011;10318;47.674;9.052;2022-08-01T05:43:16;3.75;;;2.30;;
20320;SDS011;10318;47.674;9.052;2022-08-01T05:45:43;2.55;;;2.03;;
20320;SDS011;10318;47.674;9.052;2022-08-01T05:48:11;2.47;;;2.03;;
20320;SDS011;10318;47.674;9.052;2022-08-01T05:50:37;2.30;;;1.60;;
20320;SDS011;10318;47.674;9.052;2022-08-01T05:53:04;3.67;;;2.35;;
20320;SDS011;10318;47.674;9.052;2022-08-01T05:55:31;3.03;;;2.05;;
20320;SDS011;10318;47.674;9.052;2022-08-01T05:57:57;2.80;;;2.08;;
20320;SDS011;10318;47.674;9.052;2022-08-01T06:00:24;2.85;;;2.33;;
20320;SDS011;10318;47.674;9.052;2022-08-01T06:02:50;2.55;;;2.00;;
20320;SDS011;10318;47.674;9.052;2022-08-01T06:05:17;3.47;;;2.00;;
20320;SDS011;10318;47.674;9.052;2022-08-01T06:07:44;4.57;;;2.97;;
20320;SDS011;10318;47.674;9.052;2022-08-01T06:10:10;4.88;;;2.42;;
20320;SDS011;10318;47.674;9.052;2022-08-01T06:12:37;5.85;;;2.38;;
20320;SDS011;10318;47.674;9.052;2022-08-01T06:15:04;3.22;;;2.40;;
20320;SDS011;10318;47.674;9.052;2022-08-01T06:17:31;2.65;;;2.08;;
20320;SDS011;10318;47.674;9.052;2022-08-01T06:19:58;6.90;;;2.38;;
20320;SDS011;10318;47.674;9.052;2022-08-01T06:22:24;3.33;;;2.28;;
20320;SDS011;10318;47.674;9.052;2022-08-01T06:24:51;3.97;;;2.30;;
20320;SDS011;10318;47.674;9.052;2022-08-01T06:27:18;10.23;;;2.60;;
20320;SDS011;10318;47.674;9.052;2022-08-01T06:29:47;3.85;;;2.17;;
20320;SDS011;10318;47.674;9.052;2022-08-01T06:32:20;2.63;;;2.20;;
20320;SDS011;10318;47.674;9.052;2022-08-01T06:34:53;2.40;;;2.20;;
20320;SDS011;10318;47.674;9.052;2022-08-01T06:37:20;4.35;;;2.17;;
20320;SDS011;10318;47.674;9.052;2022-08-01T06:39:47;3.80;;;2.40;;
20320;SDS011;10318;47.674;9.052;2022-08-01T06:42:16;5.20;;;2.88;;
20320;SDS011;10318;47.674;9.052;2022-08-01T06:44:43;3.70;;;2.40;;
20320;SDS011;10318;47.674;9.052;2022-08-01T06:47:09;3.50;;;2.00;;
20320;SDS011;10318;47.674;9.052;2022-08-01T06:49:36;5.47;;;2.20;;
20320;SDS011;10318;47.674;9.052;2022-08-01T06:52:03;3.28;;;2.42;;
20320;SDS011;10318;47.674;9.052;2022-08-01T06:54:31;2.90;;;2.35;;
20320;SDS011;10318;47.674;9.052;2022-08-01T06:56:57;6.63;;;2.70;;
20320;SDS011;10318;47.674;9.052;2022-08-01T06:59:24;4.78;;;2.40;;
20320;SDS011;10318;47.674;9.052;2022-08-01T07:01:51;3.20;;;2.35;;
20320;SDS011;10318;47.674;9.052;2022-08-01T07:04:17;6.13;;;2.60;;
20320;SDS011;10318;47.674;9.052;2022-08-01T07:06:44;5.15;;;2.83;;
20320;SDS011;10318;47.674;9.052;2022-08-01T07:09:11;4.75;;;2.97;;
20320;SDS011;10318;47.674;9.052;2022-08-01T07:11:40;4.13;;;2.78;;
20320;SDS011;10318;47.674;9.052;2022-08-01T07:14:07;5.75;;;2.83;;
20320;SDS011;10318;47.674;9.052;2022-08-01T07:16:33;5.13;;;2.80;;
20320;SDS011;10318;47.674;9.052;2022-08-01T07:19:00;3.63;;;2.72;;
20320;SDS011;10318;47.674;9.052;2022-08-01T07:21:27;4.13;;;3.00;;
20320;SDS011;10318;47.674;9.052;2022-08-01T07:24:07;3.20;;;2.70;;
20320;SDS011;10318;47.674;9.052;2022-08-01T07:26:43;4.18;;;2.78;;
20320;SDS011;10318;47.674;9.052;2022-08-01T07:29:28;3.42;;;2.63;;
20320;SDS011;10318;47.674;9.052;2022-08-01T07:31:56;3.25;;;2.40;;
20320;SDS011;10318;47.674;9.052;2022-08-01T07:34:23;9.43;;;2.80;;
20320;SDS011;10318;47.674;9.052;2022-08-01T07:36:50;3.22;;;2.25;;
20320;SDS011;10318;47.674;9.052;2022-08-01T07:39:17;3.50;;;2.30;;
20320;SDS011;10318;47.674;9.052;2022-08-01T07:41:44;2.63;;;2.05;;
20320;SDS011;10318;47.674;9.052;2022-08-01T07:44:31;4.47;;;2.42;;
20320;SDS011;10318;47.674;9.052;2022-08-01T07:46:58;4.88;;;3.13;;
20320;SDS011;10318;47.674;9.052;2022-08-01T07:49:24;4.03;;;2.53;;
20320;SDS011;10318;47.674;9.052;2022-08-01T07:51:51;4.32;;;2.22;;
20320;SDS011;10318;47.674;9.052;2022-08-01T07:54:29;2.70;;;2.40;;
20320;SDS011;10318;47.674;9.052;2022-08-01T07:56:59;2.85;;;2.40;;
20320;SDS011;10318;47.674;9.052;2022-08-01T07:59:26;3.03;;;2.63;;
20320;SDS011;10318;47.674;9.052;2022-08-01T08:01:53;5.03;;;2.50;;
20320;SDS011;10318;47.674;9.052;2022-08-01T08:04:20;4.07;;;2.60;;
20320;SDS011;10318;47.674;9.052;2022-08-01T08:06:46;3.00;;;2.35;;
20320;SDS011;10318;47.674;9.052;2022-08-01T08:09:14;4.45;;;2.53;;
20320;SDS011;10318;47.674;9.052;2022-08-01T08:11:42;3.03;;;2.42;;
20320;SDS011;10318;47.674;9.052;2022-08-01T08:14:13;3.80;;;2.67;;
20320;SDS011;10318;47.674;9.052;2022-08-01T08:16:40;2.90;;;2.70;;
20320;SDS011;10318;47.674;9.052;2022-08-01T08:19:06;3.75;;;3.10;;
20320;SDS011;10318;47.674;9.052;2022-08-01T08:21:33;3.22;;;2.90;;
20320;SDS011;10318;47.674;9.052;2022-08-01T08:24:00;3.50;;;2.97;;
20320;SDS011;10318;47.674;9.052;2022-08-01T08:26:52;3.47;;;2.70;;
20320;SDS011;10318;47.674;9.052;2022-08-01T08:29:22;3.53;;;2.78;;
20320;SDS011;10318;47.674;9.052;2022-08-01T08:31:49;3.97;;;3.10;;
20320;SDS011;10318;47.674;9.052;2022-08-01T08:34:18;4.30;;;2.75;;
20320;SDS011;10318;47.674;9.052;2022-08-01T08:36:46;5.32;;;3.40;;
20320;SDS011;10318;47.674;9.052;2022-08-01T08:39:15;3.92;;;2.88;;
20320;SDS011;10318;47.674;9.052;2022-08-01T08:41:45;3.28;;;2.88;;
20320;SDS011;10318;47.674;9.052;2022-08-01T08:44:15;4.57;;;3.35;;
20320;SDS011;10318;47.674;9.052;2022-08-01T08:46:47;4.70;;;3.30;;
20320;SDS011;10318;47.674;9.052;2022-08-01T08:49:20;4.40;;;3.72;;
20320;SDS011;10318;47.674;9.052;2022-08-01T08:51:48;4.10;;;3.00;;
20320;SDS011;10318;47.674;9.052;2022-08-01T08:54:16;4.28;;;2.92;;
20320;SDS011;10318;47.674;9.052;2022-08-01T08:56:43;3.72;;;2.53;;
20320;SDS011;10318;47.674;9.052;2022-08-01T08:59:11;9.43;;;3.30;;
20320;SDS011;10318;47.674;9.052;2022-08-01T09:01:39;3.85;;;3.03;;
20320;SDS011;10318;47.674;9.052;2022-08-01T09:04:06;3.65;;;3.35;;
20320;SDS011;10318;47.674;9.052;2022-08-01T09:06:33;4.35;;;3.20;;
20320;SDS011;10318;47.674;9.052;2022-08-01T09:08:59;5.50;;;3.20;;
20320;SDS011;10318;47.674;9.052;2022-08-01T09:11:26;3.50;;;2.90;;
20320;SDS011;10318;47.674;9.052;2022-08-01T09:16:29;6.00;;;3.25;;
20320;SDS011;10318;47.674;9.052;2022-08-01T09:22:03;3.72;;;2.92;;
20320;SDS011;10318;47.674;9.052;2022-08-01T09:24:31;3.35;;;2.55;;
20320;SDS011;10318;47.674;9.052;2022-08-01T09:26:58;3.00;;;2.47;;
20320;SDS011;10318;47.674;9.052;2022-08-01T09:29:29;3.63;;;2.65;;
20320;SDS011;10318;47.674;9.052;2022-08-01T09:32:06;4.05;;;2.60;;
20320;SDS011;10318;47.674;9.052;2022-08-01T09:34:41;2.90;;;2.17;;
20320;SDS011;10318;47.674;9.052;2022-08-01T09:37:08;3.95;;;2.55;;
20320;SDS011;10318;47.674;9.052;2022-08-01T09:39:37;2.85;;;2.38;;
20320;SDS011;10318;47.674;9.052;2022-08-01T09:42:22;3.97;;;2.10;;
20320;SDS011;10318;47.674;9.052;2022-08-01T09:44:54;3.13;;;2.05;;
20320;SDS011;10318;47.674;9.052;2022-08-01T09:47:21;2.30;;;1.95;;
20320;SDS011;10318;47.674;9.052;2022-08-01T09:49:56;3.22;;;2.50;;
20320;SDS011;10318;47.674;9.052;2022-08-01T09:52:25;2.78;;;2.50;;
20320;SDS011;10318;47.674;9.052;2022-08-01T09:54:58;2.90;;;2.40;;
20320;SDS011;10318;47.674;9.052;2022-08-01T09:57:26;3.42;;;2.28;;
20320;SDS011;10318;47.674;9.052;2022-08-01T09:59:55;2.65;;;2.40;;
20320;SDS011;10318;47.674;9.052;2022-08-01T10:02:32;2.75;;;2.35;;
20320;SDS011;10318;47.674;9.052;2022-08-01T10:05:00;4.82;;;2.72;;
20320;SDS011;10318;47.674;9.052;2022-08-01T10:07:33;5.75;;;2.65;;
20320;SDS011;10318;47.674;9.052;2022-08-01T10:10:10;4.30;;;2.70;;
20320;SDS011;10318;47.674;9.052;2022-08-01T10:12:37;5.32;;;2.35;;
20320;SDS011;10318;47.674;9.052;2022-08-01T10:15:10;3.65;;;2.63;;
20320;SDS011;10318;47.674;9.052;2022-08-01T10:17:39;3.10;;;2.63;;
20320;SDS011;10318;47.674;9.052;2022-08-01T10:20:18;3.75;;;2.47;;
20320;SDS011;10318;47.674;9.052;2022-08-01T10:23:03;2.83;;;2.30;;
20320;SDS011;10318;47.674;9.052;2022-08-01T10:25:37;3.25;;;2.63;;
20320;SDS011;10318;47.674;9.052;2022-08-01T10:28:14;3.20;;;2.90;;
20320;SDS011;10318;47.674;9.052;2022-08-01T10:30:46;4.32;;;2.40;;
20320;SDS011;10318;47.674;9.052;2022-08-01T10:33:14;3.03;;;2.60;;
20320;SDS011;10318;47.674;9.052;2022-08-01T10:36:02;4.65;;;2.53;;
20320;SDS011;10318;47.674;9.052;2022-08-01T10:38:34;3.95;;;2.70;;
20320;SDS011;10318;47.674;9.052;2022-08-01T10:41:03;3.97;;;2.83;;
20320;SDS011;10318;47.674;9.052;2022-08-01T10:43:34;3.15;;;2.65;;
20320;SDS011;10318;47.674;9.052;2022-08-01T10:46:02;3.50;;;2.60;;
20320;SDS011;10318;47.674;9.052;2022-08-01T10:48:31;3.35;;;2.20;;
20320;SDS011;10318;47.674;9.052;2022-08-01T10:51:04;2.90;;;2.30;;
20320;SDS011;10318;47.674;9.052;2022-08-01T10:53:48;2.50;;;1.98;;
20320;SDS011;10318;47.674;9.052;2022-08-01T10:56:20;4.47;;;1.90;;
20320;SDS011;10318;47.674;9.052;2022-08-01T10:59:14;6.15;;;1.98;;
20320;SDS011;10318;47.674;9.052;2022-08-01T11:01:40;4.45;;;2.05;;
20320;SDS011;10318;47.674;9.052;2022-08-01T11:04:11;4.97;;;2.00;;
20320;SDS011;10318;47.674;9.052;2022-08-01T11:06:51;2.08;;;1.88;;
20320;SDS011;10318;47.674;9.052;2022-08-01T11:14:32;3.78;;;1.80;;
20320;SDS011;10318;47.674;9.052;2022-08-01T11:17:33;1.70;;;1.58;;
20320;SDS011;10318;47.674;9.052;2022-08-01T11:20:08;2.28;;;1.52;;
20320;SDS011;10318;47.674;9.052;2022-08-01T11:25:22;5.22;;;1.92;;
20320;SDS011;10318;47.674;9.052;2022-08-01T11:41:28;3.90;;;1.60;;
20320;SDS011;10318;47.674;9.052;2022-08-01T11:54:39;2.58;;;1.40;;
20320;SDS011;10318;47.674;9.052;2022-08-01T11:57:08;3.47;;;1.58;;
20320;SDS011;10318;47.674;9.052;2022-08-01T11:59:37;2.75;;;1.52;;
20320;SDS011;10318;47.674;9.052;2022-08-01T12:02:27;2.15;;;1.52;;
20320;SDS011;10318;47.674;9.052;2022-08-01T12:07:31;1.60;;;1.50;;
20320;SDS011;10318;47.674;9.052;2022-08-01T12:12:32;1.65;;;1.30;;
20320;SDS011;10318;47.674;9.052;2022-08-01T12:15:00;1.83;;;1.48;;
20320;SDS011;10318;47.674;9.052;2022-08-01T12:17:31;2.53;;;1.20;;
20320;SDS011;10318;47.674;9.052;2022-08-01T12:19:59;2.50;;;1.20;;
20320;SDS011;10318;47.674;9.052;2022-08-01T12:22:25;2.10;;;0.70;;
20320;SDS011;10318;47.674;9.052;2022-08-01T12:24:52;1.10;;;0.90;;
20320;SDS011;10318;47.674;9.052;2022-08-01T12:27:29;1.27;;;1.00;;
20320;SDS011;10318;47.674;9.052;2022-08-01T12:29:57;1.33;;;1.00;;
20320;SDS011;10318;47.674;9.052;2022-08-01T12:35:05;3.97;;;1.15;;
20320;SDS011;10318;47.674;9.052;2022-08-01T12:37:34;1.20;;;1.00;;
20320;SDS011;10318;47.674;9.052;2022-08-01T12:40:06;1.92;;;1.13;;
20320;SDS011;10318;47.674;9.052;2022-08-01T12:42:36;1.13;;;1.02;;
20320;SDS011;10318;47.674;9.052;2022-08-01T12:45:03;3.13;;;1.30;;
20320;SDS011;10318;47.674;9.052;2022-08-01T12:47:30;2.10;;;1.10;;
20320;SDS011;10318;47.674;9.052;2022-08-01T12:49:56;1.10;;;0.95;;
20320;SDS011;10318;47.674;9.052;2022-08-01T12:52:23;1.13;;;1.00;;
20320;SDS011;10318;47.674;9.052;2022-08-01T12:57:38;1.25;;;0.88;;
20320;SDS011;10318;47.674;9.052;2022-08-01T13:02:33;1.70;;;1.15;;
20320;SDS011;10318;47.674;9.052;2022-08-01T13:05:01;1.60;;;1.10;;
20320;SDS011;10318;47.674;9.052;2022-08-01T13:07:37;1.10;;;1.00;;
20320;SDS011;10318;47.674;9.052;2022-08-01T13:10:11;1.65;;;1.10;;
20320;SDS011;10318;47.674;9.052;2022-08-01T13:12:39;1.25;;;1.10;;
20320;SDS011;10318;47.674;9.052;2022-08-01T13:15:19;2.03;;;1.38;;
20320;SDS011;10318;47.674;9.052;2022-08-01T13:17:46;1.20;;;1.10;;
20320;SDS011;10318;47.674;9.052;2022-08-01T13:20:23;2.40;;;1.33;;
20320;SDS011;10318;47.674;9.052;2022-08-01T13:22:50;2.30;;;1.08;;
20320;SDS011;10318;47.674;9.052;2022-08-01T13:25:19;1.48;;;1.20;;
20320;SDS011;10318;47.674;9.052;2022-08-01T13:27:49;1.27;;;0.80;;
20320;SDS011;10318;47.674;9.052;2022-08-01T13:30:19;2.72;;;1.00;;
20320;SDS011;10318;47.674;9.052;2022-08-01T13:32:58;3.72;;;1.27;;
20320;SDS011;10318;47.674;9.052;2022-08-01T13:35:27;1.08;;;0.90;;
20320;SDS011;10318;47.674;9.052;2022-08-01T13:37:53;1.17;;;0.73;;
20320;SDS011;10318;47.674;9.052;2022-08-01T13:40:25;1.75;;;1.13;;
20320;SDS011;10318;47.674;9.052;2022-08-01T13:42:53;1.25;;;1.00;;
20320;SDS011;10318;47.674;9.052;2022-08-01T13:45:22;2.05;;;0.88;;
20320;SDS011;10318;47.674;9.052;2022-08-01T13:47:52;1.30;;;0.80;;
20320;SDS011;10318;47.674;9.052;2022-08-01T13:50:38;1.23;;;0.80;;
20320;SDS011;10318;47.674;9.052;2022-08-01T13:53:06;1.27;;;1.00;;
20320;SDS011;10318;47.674;9.052;2022-08-01T13:55:33;0.88;;;0.73;;
20320;SDS011;10318;47.674;9.052;2022-08-01T13:58:01;2.92;;;1.05;;
20320;SDS011;10318;47.674;9.052;2022-08-01T14:00:29;2.22;;;0.75;;
20320;SDS011;10318;47.674;9.052;2022-08-01T14:02:55;2.13;;;0.77;;
20320;SDS011;10318;47.674;9.052;2022-08-01T14:05:22;1.20;;;1.00;;
20320;SDS011;10318;47.674;9.052;2022-08-01T14:07:49;0.88;;;0.70;;
20320;SDS011;10318;47.674;9.052;2022-08-01T14:10:22;1.83;;;0.85;;
20320;SDS011;10318;47.674;9.052;2022-08-01T14:12:49;1.35;;;0.80;;
20320;SDS011;10318;47.674;9.052;2022-08-01T14:15:16;0.80;;;0.77;;
20320;SDS011;10318;47.674;9.052;2022-08-01T14:18:03;2.08;;;0.82;;
20320;SDS011;10318;47.674;9.052;2022-08-01T14:20:31;1.35;;;0.70;;
20320;SDS011;10318;47.674;9.052;2022-08-01T14:22:58;0.77;;;0.75;;
20320;SDS011;10318;47.674;9.052;2022-08-01T14:25:25;1.45;;;0.70;;
20320;SDS011;10318;47.674;9.052;2022-08-01T14:28:12;1.95;;;0.98;;
20320;SDS011;10318;47.674;9.052;2022-08-01T14:30:39;0.80;;;0.68;;
20320;SDS011;10318;47.674;9.052;2022-08-01T14:33:07;1.42;;;0.80;;
20320;SDS011;10318;47.674;9.052;2022-08-01T14:35:34;1.08;;;0.75;;
20320;SDS011;10318;47.674;9.052;2022-08-01T14:38:21;0.85;;;0.60;;
20320;SDS011;10318;47.674;9.052;2022-08-01T14:40:58;2.72;;;0.80;;
20320;SDS011;10318;47.674;9.052;2022-08-01T14:43:25;1.08;;;0.60;;
20320;SDS011;10318;47.674;9.052;2022-08-01T14:45:59;1.45;;;0.50;;
20320;SDS011;10318;47.674;9.052;2022-08-01T14:48:26;3.10;;;0.60;;
20320;SDS011;10318;47.674;9.052;2022-08-01T14:50:53;1.40;;;0.80;;
20320;SDS011;10318;47.674;9.052;2022-08-01T14:53:20;1.00;;;0.60;;
20320;SDS011;10318;47.674;9.052;2022-08-01T14:55:46;2.08;;;0.70;;
20320;SDS011;10318;47.674;9.052;2022-08-01T14:58:13;1.50;;;0.90;;
20320;SDS011;10318;47.674;9.052;2022-08-01T15:00:40;2.25;;;0.82;;
20320;SDS011;10318;47.674;9.052;2022-08-01T15:03:07;0.93;;;0.65;;
20320;SDS011;10318;47.674;9.052;2022-08-01T15:05:34;0.85;;;0.63;;
20320;SDS011;10318;47.674;9.052;2022-08-01T15:08:02;0.82;;;0.50;;
20320;SDS011;10318;47.674;9.052;2022-08-01T15:10:29;0.90;;;0.80;;
20320;SDS011;10318;47.674;9.052;2022-08-01T15:12:58;1.73;;;0.82;;
20320;SDS011;10318;47.674;9.052;2022-08-01T15:15:26;0.98;;;0.50;;
20320;SDS011;10318;47.674;9.052;2022-08-01T15:17:53;1.90;;;0.60;;
20320;SDS011;10318;47.674;9.052;2022-08-01T15:20:20;2.78;;;0.77;;
20320;SDS011;10318;47.674;9.052;2022-08-01T15:22:47;3.60;;;0.50;;
20320;SDS011;10318;47.674;9.052;2022-08-01T15:25:14;0.85;;;0.55;;
20320;SDS011;10318;47.674;9.052;2022-08-01T15:27:41;2.15;;;0.52;;
20320;SDS011;10318;47.674;9.052;2022-08-01T15:30:08;2.65;;;0.50;;
20320;SDS011;10318;47.674;9.052;2022-08-01T15:32:35;1.48;;;0.52;;
20320;SDS011;10318;47.674;9.052;2022-08-01T15:35:02;0.60;;;0.45;;
20320;SDS011;10318;47.674;9.052;2022-08-01T15:37:29;0.85;;;0.40;;
20320;SDS011;10318;47.674;9.052;2022-08-01T15:39:56;0.45;;;0.40;;
20320;SDS011;10318;47.674;9.052;2022-08-01T15:42:23;1.13;;;0.40;;
20320;SDS011;10318;47.674;9.052;2022-08-01T15:44:52;0.73;;;0.60;;
20320;SDS011;10318;47.674;9.052;2022-08-01T15:47:19;1.67;;;0.90;;
20320;SDS011;10318;47.674;9.052;2022-08-01T15:49:47;2.10;;;1.10;;
20320;SDS011;10318;47.674;9.052;2022-08-01T15:52:18;1.77;;;1.00;;
20320;SDS011;10318;47.674;9.052;2022-08-01T15:54:48;3.90;;;1.15;;
20320;SDS011;10318;47.674;9.052;2022-08-01T15:57:14;1.40;;;1.05;;
20320;SDS011;10318;47.674;9.052;2022-08-01T15:59:41;2.50;;;1.00;;
20320;SDS011;10318;47.674;9.052;2022-08-01T16:02:08;1.15;;;1.05;;
20320;SDS011;10318;47.674;9.052;2022-08-01T16:04:35;1.63;;;1.10;;
20320;SDS011;10318;47.674;9.052;2022-08-01T16:07:04;2.10;;;1.05;;
20320;SDS011;10318;47.674;9.052;2022-08-01T16:09:31;1.80;;;1.25;;